createdAt,value
2022-11-16T00:00:14.823Z,5.20
2022-11-16T00:02:41.872Z,5.40
2022-11-16T00:05:08.982Z,5.15
2022-11-16T00:07:37.146Z,5.20
2022-11-16T00:10:04.435Z,5.63
2022-11-16T00:12:31.579Z,5.60
2022-11-16T00:14:58.924Z,5.57
2022-11-16T00:17:26.903Z,5.10
2022-11-16T00:19:53.811Z,5.32
2022-11-16T00:22:20.815Z,5.28
2022-11-16T00:24:47.720Z,5.47
2022-11-16T00:27:34.419Z,5.43
2022-11-16T00:30:02.436Z,5.82
2022-11-16T00:32:29.690Z,5.68
2022-11-16T00:34:56.541Z,5.75
2022-11-16T00:37:24.106Z,6.05
2022-11-16T00:39:53.824Z,5.50
2022-11-16T00:42:20.842Z,5.80
2022-11-16T00:44:47.835Z,5.75
2022-11-16T00:47:15.876Z,5.70
2022-11-16T00:49:42.805Z,5.53
2022-11-16T00:52:09.735Z,6.05
2022-11-16T00:54:36.844Z,6.38
2022-11-16T00:57:04.004Z,5.93
2022-11-16T00:59:31.319Z,6.13
2022-11-16T01:01:58.863Z,6.15
2022-11-16T01:04:25.793Z,6.50
2022-11-16T01:06:52.986Z,6.25
2022-11-16T01:09:19.969Z,5.97
2022-11-16T01:12:06.517Z,6.22
2022-11-16T01:14:33.451Z,6.00
2022-11-16T01:17:00.419Z,6.00
2022-11-16T01:19:27.779Z,5.75
2022-11-16T01:21:55.021Z,5.63
2022-11-16T01:24:22.264Z,6.40
2022-11-16T01:26:49.213Z,6.32
2022-11-16T01:29:19.251Z,6.25
2022-11-16T01:31:52.684Z,5.47
2022-11-16T01:34:20.901Z,6.13
2022-11-16T01:36:49.844Z,5.32
2022-11-16T01:39:21.003Z,5.30
2022-11-16T01:41:53.190Z,5.10
2022-11-16T01:44:32.304Z,4.88
2022-11-16T01:47:13.074Z,5.55
2022-11-16T01:49:53.056Z,5.13
2022-11-16T01:52:28.421Z,4.65
2022-11-16T01:57:29.275Z,3.22
2022-11-16T02:00:07.503Z,4.30
2022-11-16T02:02:52.775Z,4.22
2022-11-16T02:05:52.884Z,4.38
2022-11-16T02:09:02.035Z,4.18
2022-11-16T02:11:48.104Z,4.35
2022-11-16T02:14:52.233Z,4.68
2022-11-16T02:17:41.656Z,4.40
2022-11-16T02:20:44.564Z,4.18
2022-11-16T02:23:52.930Z,5.10
2022-11-16T02:26:57.349Z,4.63
2022-11-16T02:29:55.171Z,4.63
2022-11-16T02:32:37.225Z,4.95
2022-11-16T02:35:14.928Z,5.30
2022-11-16T02:38:13.505Z,5.03
2022-11-16T02:40:46.362Z,4.35
2022-11-16T02:43:26.435Z,4.82
2022-11-16T02:46:05.923Z,5.18
2022-11-16T02:48:41.255Z,4.93
2022-11-16T02:51:12.501Z,5.55
2022-11-16T02:54:03.023Z,5.47
2022-11-16T02:57:16.935Z,6.05
2022-11-16T02:59:48.724Z,5.00
2022-11-16T03:02:31.370Z,5.43
2022-11-16T03:05:32.030Z,5.47
2022-11-16T03:08:09.579Z,4.70
2022-11-16T03:10:58.461Z,5.68
2022-11-16T03:13:33.360Z,4.78
2022-11-16T03:16:05.473Z,5.15
2022-11-16T03:18:35.410Z,5.55
2022-11-16T03:21:19.873Z,5.18
2022-11-16T03:23:48.545Z,5.28
2022-11-16T03:26:20.415Z,5.38
2022-11-16T03:28:58.894Z,5.20
2022-11-16T03:31:35.110Z,5.13
2022-11-16T03:34:10.523Z,5.20
2022-11-16T03:36:58.222Z,5.03
2022-11-16T03:39:35.357Z,5.00
2022-11-16T03:42:06.992Z,4.88
2022-11-16T03:44:35.604Z,4.97
2022-11-16T03:47:07.477Z,4.97
2022-11-16T03:49:34.384Z,5.75
2022-11-16T03:52:05.362Z,5.65
2022-11-16T03:54:33.696Z,5.28
2022-11-16T03:57:01.421Z,5.60
2022-11-16T03:59:28.434Z,5.00
2022-11-16T04:01:55.522Z,6.50
2022-11-16T04:04:41.236Z,7.18
2022-11-16T04:07:28.811Z,6.45
2022-11-16T04:10:14.245Z,6.38
2022-11-16T04:13:03.171Z,6.40
2022-11-16T04:16:06.851Z,6.55
2022-11-16T04:18:52.379Z,5.95
2022-11-16T04:21:51.069Z,5.90
2022-11-16T04:24:23.666Z,4.97
2022-11-16T04:27:14.765Z,5.88
2022-11-16T04:29:42.403Z,5.25
2022-11-16T04:32:28.871Z,5.55
2022-11-16T04:35:15.173Z,4.90
2022-11-16T04:37:49.028Z,5.25
2022-11-16T04:40:25.804Z,5.50
2022-11-16T04:43:03.897Z,5.03
2022-11-16T04:45:56.201Z,4.32
2022-11-16T04:48:29.175Z,4.15
2022-11-16T04:50:56.554Z,5.30
2022-11-16T04:53:27.058Z,4.65
2022-11-16T04:56:04.696Z,4.72
2022-11-16T04:58:35.068Z,4.07
2022-11-16T05:01:03.055Z,4.27
2022-11-16T05:03:30.054Z,5.75
2022-11-16T05:05:56.998Z,6.45
2022-11-16T05:08:26.260Z,5.82
2022-11-16T05:10:54.348Z,5.40
2022-11-16T05:13:21.372Z,6.13
2022-11-16T05:15:50.191Z,5.20
2022-11-16T05:18:19.436Z,5.68
2022-11-16T05:21:01.631Z,4.93
2022-11-16T05:23:55.330Z,4.50
2022-11-16T05:26:26.698Z,3.70
2022-11-16T05:28:54.707Z,3.42
2022-11-16T05:31:24.759Z,3.95
2022-11-16T05:33:52.401Z,4.38
2022-11-16T05:36:20.218Z,4.10
2022-11-16T05:38:47.272Z,4.40
2022-11-16T05:41:14.560Z,4.63
2022-11-16T05:43:42.566Z,4.22
2022-11-16T05:46:15.849Z,4.38
2022-11-16T05:48:44.395Z,5.30
2022-11-16T05:51:12.699Z,4.25
2022-11-16T05:53:39.552Z,5.15
2022-11-16T05:56:15.062Z,5.30
2022-11-16T05:59:16.581Z,4.97
2022-11-16T06:01:45.890Z,4.47
2022-11-16T06:04:14.477Z,5.13
2022-11-16T06:06:42.643Z,5.88
2022-11-16T06:09:12.350Z,6.25
2022-11-16T06:11:39.741Z,6.68
2022-11-16T06:14:07.727Z,6.57
2022-11-16T06:16:38.668Z,6.70
2022-11-16T06:19:08.572Z,7.38
2022-11-16T06:21:36.745Z,7.22
2022-11-16T06:24:09.291Z,7.18
2022-11-16T06:26:37.758Z,7.28
2022-11-16T06:29:08.504Z,7.68
2022-11-16T06:31:36.421Z,6.80
2022-11-16T06:34:04.072Z,6.78
2022-11-16T06:37:13.462Z,7.22
2022-11-16T06:39:40.788Z,6.65
2022-11-16T06:42:08.924Z,6.68
2022-11-16T06:44:36.984Z,6.78
2022-11-16T06:47:07.152Z,6.13
2022-11-16T06:49:34.534Z,7.07
2022-11-16T06:52:06.321Z,6.15
2022-11-16T06:54:33.591Z,6.20
2022-11-16T06:57:02.033Z,5.82
2022-11-16T06:59:29.234Z,6.72
2022-11-16T07:01:59.409Z,6.75
2022-11-16T07:04:34.785Z,6.60
2022-11-16T07:07:03.586Z,5.43
2022-11-16T07:09:31.641Z,5.78
2022-11-16T07:11:58.690Z,5.32
2022-11-16T07:14:25.616Z,5.30
2022-11-16T07:17:12.739Z,5.78
2022-11-16T07:19:40.182Z,6.50
2022-11-16T07:22:07.468Z,5.47
2022-11-16T07:24:34.444Z,5.03
2022-11-16T07:27:03.080Z,5.38
2022-11-16T07:29:35.054Z,6.15
2022-11-16T07:32:13.485Z,6.18
2022-11-16T07:34:59.573Z,5.53
2022-11-16T07:37:31.880Z,4.85
2022-11-16T07:39:59.022Z,5.10
2022-11-16T07:42:26.301Z,5.90
2022-11-16T07:45:09.839Z,5.25
2022-11-16T07:48:04.472Z,5.60
2022-11-16T07:51:09.216Z,5.07
2022-11-16T07:53:41.843Z,5.30
2022-11-16T07:56:10.061Z,5.32
2022-11-16T07:58:37.869Z,5.22
2022-11-16T08:01:06.794Z,5.03
2022-11-16T08:03:36.411Z,5.17
2022-11-16T08:06:23.857Z,5.13
2022-11-16T08:08:58.659Z,5.00
2022-11-16T08:11:26.933Z,4.75
2022-11-16T08:13:57.178Z,5.10
2022-11-16T08:16:24.767Z,5.05
2022-11-16T08:19:03.416Z,4.72
2022-11-16T08:21:30.878Z,5.13
2022-11-16T08:23:58.823Z,5.30
2022-11-16T08:26:27.817Z,5.22
2022-11-16T08:29:04.281Z,5.13
2022-11-16T08:31:35.305Z,4.70
2022-11-16T08:34:09.276Z,4.90
2022-11-16T08:36:40.160Z,5.20
2022-11-16T08:39:08.822Z,5.25
2022-11-16T08:41:37.631Z,4.70
2022-11-16T08:44:06.794Z,4.57
2022-11-16T08:46:57.769Z,5.07
2022-11-16T08:49:35.116Z,5.18
2022-11-16T08:52:02.511Z,4.60
2022-11-16T08:54:31.536Z,4.70
2022-11-16T08:56:59.462Z,5.28
2022-11-16T08:59:29.806Z,5.30
2022-11-16T09:02:02.133Z,5.20
2022-11-16T09:04:34.072Z,5.38
2022-11-16T09:07:10.870Z,4.85
2022-11-16T09:09:37.906Z,4.85
2022-11-16T09:12:05.231Z,5.20
2022-11-16T09:14:36.122Z,5.10
2022-11-16T09:17:30.247Z,5.40
2022-11-16T09:19:57.585Z,5.18
2022-11-16T09:22:24.502Z,4.90
2022-11-16T09:24:53.397Z,5.22
2022-11-16T09:27:46.732Z,5.22
2022-11-16T09:30:17.732Z,5.45
2022-11-16T09:33:16.806Z,5.10
2022-11-16T09:35:44.871Z,5.50
2022-11-16T09:41:42.398Z,5.57
2022-11-16T09:44:32.338Z,4.78
2022-11-16T09:47:04.497Z,5.43
2022-11-16T09:49:38.268Z,5.18
2022-11-16T09:52:56.183Z,4.93
2022-11-16T09:55:35.377Z,5.18
2022-11-16T09:58:12.073Z,5.82
2022-11-16T10:00:53.408Z,5.03
2022-11-16T10:03:20.574Z,5.45
2022-11-16T10:06:03.460Z,4.95
2022-11-16T10:08:49.078Z,5.22
2022-11-16T10:11:48.465Z,5.07
2022-11-16T10:14:21.897Z,5.70
2022-11-16T10:17:20.116Z,5.40
2022-11-16T10:20:00.185Z,5.50
2022-11-16T10:22:43.836Z,5.70
2022-11-16T10:25:28.944Z,5.57
2022-11-16T10:27:57.116Z,4.90
2022-11-16T10:30:24.545Z,5.72
2022-11-16T10:33:11.304Z,5.85
2022-11-16T10:35:54.195Z,5.75
2022-11-16T10:38:33.340Z,5.70
2022-11-16T10:41:25.827Z,5.65
2022-11-16T10:43:55.754Z,5.95
2022-11-16T10:46:37.248Z,5.73
2022-11-16T10:49:15.401Z,5.93
2022-11-16T10:51:43.424Z,5.35
2022-11-16T10:54:14.913Z,5.50
2022-11-16T10:56:49.661Z,5.25
2022-11-16T10:59:19.665Z,5.95
2022-11-16T11:01:53.115Z,5.95
2022-11-16T11:04:26.124Z,5.45
2022-11-16T11:07:44.230Z,5.38
2022-11-16T11:10:31.193Z,5.60
2022-11-16T11:13:08.697Z,5.78
2022-11-16T11:15:37.418Z,5.40
2022-11-16T11:18:23.758Z,5.28
2022-11-16T11:21:07.188Z,5.10
2022-11-16T11:23:52.620Z,5.38
2022-11-16T11:26:48.982Z,5.68
2022-11-16T11:29:36.262Z,5.38
2022-11-16T11:32:13.459Z,5.53
2022-11-16T11:34:47.569Z,5.65
2022-11-16T11:37:27.626Z,5.28
2022-11-16T11:40:14.829Z,5.87
2022-11-16T11:42:56.006Z,5.00
2022-11-16T11:45:35.185Z,5.32
2022-11-16T11:48:12.347Z,5.05
2022-11-16T11:50:52.899Z,5.10
2022-11-16T11:53:35.755Z,5.57
2022-11-16T11:56:03.724Z,4.97
2022-11-16T11:59:08.462Z,5.43
2022-11-16T12:01:51.515Z,5.00
2022-11-16T12:04:47.623Z,5.20
2022-11-16T12:07:33.483Z,4.88
2022-11-16T12:10:25.567Z,5.28
2022-11-16T12:13:32.459Z,4.88
2022-11-16T12:16:14.936Z,5.38
2022-11-16T12:18:48.217Z,4.95
2022-11-16T12:21:23.368Z,4.95
2022-11-16T12:24:02.319Z,4.75
2022-11-16T12:27:07.023Z,4.43
2022-11-16T12:29:55.725Z,4.70
2022-11-16T12:32:52.215Z,4.72
2022-11-16T12:35:40.914Z,4.43
2022-11-16T12:38:26.594Z,4.93
2022-11-16T12:41:22.837Z,4.93
2022-11-16T12:44:01.965Z,5.05
2022-11-16T12:46:57.855Z,5.03
